sensor_id;sensor_type;location;lat;lon;timestamp;pressure;altitude;pressure_sealevel;temperature;humidity
23281;BME280;11809;56.390;-3.266;2022-12-18T00:01:27;101225.00;;;13.24;50.78
23281;BME280;11809;56.390;-3.266;2022-12-18T00:03:55;101224.28;;;13.21;50.65
23281;BME280;11809;56.390;-3.266;2022-12-18T00:06:24;101238.41;;;13.20;50.92
23281;BME280;11809;56.390;-3.266;2022-12-18T00:08:52;101240.31;;;13.16;50.88
23281;BME280;11809;56.390;-3.266;2022-12-18T00:11:22;101240.44;;;13.13;50.71
23281;BME280;11809;56.390;-3.266;2022-12-18T00:13:50;101239.69;;;13.10;51.10
23281;BME280;11809;56.390;-3.266;2022-12-18T00:16:21;101238.06;;;13.06;51.19
23281;BME280;11809;56.390;-3.266;2022-12-18T00:18:54;101241.63;;;13.05;51.19
23281;BME280;11809;56.390;-3.266;2022-12-18T00:21:22;101240.91;;;13.01;51.09
23281;BME280;11809;56.390;-3.266;2022-12-18T00:23:50;101241.28;;;12.92;51.06
23281;BME280;11809;56.390;-3.266;2022-12-18T00:26:23;101231.94;;;12.84;51.06
23281;BME280;11809;56.390;-3.266;2022-12-18T00:28:54;101233.91;;;12.78;51.26
23281;BME280;11809;56.390;-3.266;2022-12-18T00:31:24;101247.28;;;12.74;51.63
23281;BME280;11809;56.390;-3.266;2022-12-18T00:33:53;101248.38;;;12.68;51.45
23281;BME280;11809;56.390;-3.266;2022-12-18T00:36:24;101245.06;;;12.63;51.61
23281;BME280;11809;56.390;-3.266;2022-12-18T00:38:53;101246.94;;;12.60;51.61
23281;BME280;11809;56.390;-3.266;2022-12-18T00:41:20;101243.56;;;12.56;52.00
23281;BME280;11809;56.390;-3.266;2022-12-18T00:44:08;101232.34;;;12.51;51.91
23281;BME280;11809;56.390;-3.266;2022-12-18T00:46:36;101238.66;;;12.47;51.99
23281;BME280;11809;56.390;-3.266;2022-12-18T00:49:03;101246.63;;;12.46;51.97
23281;BME280;11809;56.390;-3.266;2022-12-18T00:51:30;101249.44;;;12.41;52.32
23281;BME280;11809;56.390;-3.266;2022-12-18T00:53:58;101247.84;;;12.37;52.32
23281;BME280;11809;56.390;-3.266;2022-12-18T00:56:25;101245.31;;;12.34;52.37
23281;BME280;11809;56.390;-3.266;2022-12-18T00:58:52;101248.94;;;12.32;52.56
23281;BME280;11809;56.390;-3.266;2022-12-18T01:01:20;101246.34;;;12.30;52.57
23281;BME280;11809;56.390;-3.266;2022-12-18T01:03:47;101254.34;;;12.27;52.44
23281;BME280;11809;56.390;-3.266;2022-12-18T01:06:14;101240.38;;;12.25;52.73
23281;BME280;11809;56.390;-3.266;2022-12-18T01:08:42;101241.44;;;12.21;52.80
23281;BME280;11809;56.390;-3.266;2022-12-18T01:11:12;101226.59;;;12.19;52.66
23281;BME280;11809;56.390;-3.266;2022-12-18T01:13:39;101240.75;;;12.16;52.79
23281;BME280;11809;56.390;-3.266;2022-12-18T01:16:07;101244.28;;;12.15;52.77
23281;BME280;11809;56.390;-3.266;2022-12-18T01:18:35;101244.41;;;12.12;52.93
23281;BME280;11809;56.390;-3.266;2022-12-18T01:21:11;101240.16;;;12.08;53.08
23281;BME280;11809;56.390;-3.266;2022-12-18T01:23:38;101234.06;;;12.06;52.85
23281;BME280;11809;56.390;-3.266;2022-12-18T01:26:09;101237.53;;;12.08;52.88
23281;BME280;11809;56.390;-3.266;2022-12-18T01:28:36;101243.81;;;12.04;53.09
23281;BME280;11809;56.390;-3.266;2022-12-18T01:33:41;101236.97;;;12.00;53.17
23281;BME280;11809;56.390;-3.266;2022-12-18T01:36:18;101229.16;;;11.97;53.35
23281;BME280;11809;56.390;-3.266;2022-12-18T01:38:46;101235.34;;;11.96;53.34
23281;BME280;11809;56.390;-3.266;2022-12-18T01:41:17;101241.50;;;11.95;53.39
23281;BME280;11809;56.390;-3.266;2022-12-18T01:43:56;101245.09;;;11.92;53.19
23281;BME280;11809;56.390;-3.266;2022-12-18T01:46:24;101239.13;;;11.89;53.60
23281;BME280;11809;56.390;-3.266;2022-12-18T01:49:00;101243.53;;;11.88;53.68
23281;BME280;11809;56.390;-3.266;2022-12-18T01:51:29;101244.50;;;11.86;53.64
23281;BME280;11809;56.390;-3.266;2022-12-18T01:53:57;101241.09;;;11.82;53.87
23281;BME280;11809;56.390;-3.266;2022-12-18T01:56:26;101249.88;;;11.83;53.83
23281;BME280;11809;56.390;-3.266;2022-12-18T01:59:07;101238.53;;;11.81;53.57
23281;BME280;11809;56.390;-3.266;2022-12-18T02:01:37;101237.72;;;11.79;53.88
23281;BME280;11809;56.390;-3.266;2022-12-18T02:04:25;101244.78;;;11.78;54.02
23281;BME280;11809;56.390;-3.266;2022-12-18T02:09:54;101258.03;;;11.75;53.82
23281;BME280;11809;56.390;-3.266;2022-12-18T02:12:27;101258.94;;;11.74;53.90
23281;BME280;11809;56.390;-3.266;2022-12-18T02:17:39;101263.47;;;11.71;53.98
23281;BME280;11809;56.390;-3.266;2022-12-18T02:22:48;101269.72;;;11.67;54.17
23281;BME280;11809;56.390;-3.266;2022-12-18T02:28:12;101270.69;;;11.64;54.34
23281;BME280;11809;56.390;-3.266;2022-12-18T02:30:42;101268.13;;;11.63;54.19
23281;BME280;11809;56.390;-3.266;2022-12-18T02:33:11;101275.19;;;11.61;54.53
23281;BME280;11809;56.390;-3.266;2022-12-18T02:35:39;101264.63;;;11.62;54.20
23281;BME280;11809;56.390;-3.266;2022-12-18T02:38:09;101265.63;;;11.58;54.42
23281;BME280;11809;56.390;-3.266;2022-12-18T02:40:36;101270.03;;;11.57;54.50
23281;BME280;11809;56.390;-3.266;2022-12-18T02:43:10;101268.25;;;11.58;54.42
23281;BME280;11809;56.390;-3.266;2022-12-18T02:45:53;101270.94;;;11.56;54.33
23281;BME280;11809;56.390;-3.266;2022-12-18T02:48:27;101266.59;;;11.55;54.48
23281;BME280;11809;56.390;-3.266;2022-12-18T02:56:13;101269.31;;;11.52;54.65
23281;BME280;11809;56.390;-3.266;2022-12-18T02:58:47;101270.25;;;11.51;54.61
23281;BME280;11809;56.390;-3.266;2022-12-18T03:06:54;101266.84;;;11.48;54.69
23281;BME280;11809;56.390;-3.266;2022-12-18T03:09:41;101260.69;;;11.49;54.78
23281;BME280;11809;56.390;-3.266;2022-12-18T03:12:20;101275.72;;;11.45;54.90
23281;BME280;11809;56.390;-3.266;2022-12-18T03:14:57;101271.31;;;11.46;54.87
23281;BME280;11809;56.390;-3.266;2022-12-18T03:17:27;101271.34;;;11.44;55.13
23281;BME280;11809;56.390;-3.266;2022-12-18T03:19:59;101268.72;;;11.44;55.05
23281;BME280;11809;56.390;-3.266;2022-12-18T03:22:30;101275.72;;;11.45;55.09
23281;BME280;11809;56.390;-3.266;2022-12-18T03:25:00;101270.50;;;11.44;54.87
23281;BME280;11809;56.390;-3.266;2022-12-18T03:27:31;101271.41;;;11.43;55.26
23281;BME280;11809;56.390;-3.266;2022-12-18T03:30:03;101273.97;;;11.44;54.98
23281;BME280;11809;56.390;-3.266;2022-12-18T03:35:30;101261.75;;;11.43;54.89
23281;BME280;11809;56.390;-3.266;2022-12-18T03:37:59;101266.22;;;11.41;55.13
23281;BME280;11809;56.390;-3.266;2022-12-18T03:40:35;101258.31;;;11.41;54.85
23281;BME280;11809;56.390;-3.266;2022-12-18T03:43:11;101258.31;;;11.41;55.15
23281;BME280;11809;56.390;-3.266;2022-12-18T03:45:51;101253.09;;;11.40;54.86
23281;BME280;11809;56.390;-3.266;2022-12-18T03:48:38;101257.56;;;11.38;54.87
23281;BME280;11809;56.390;-3.266;2022-12-18T03:51:13;101254.94;;;11.36;54.84
23281;BME280;11809;56.390;-3.266;2022-12-18T03:53:53;101257.59;;;11.36;54.86
23281;BME280;11809;56.390;-3.266;2022-12-18T03:56:24;101249.75;;;11.35;54.92
23281;BME280;11809;56.390;-3.266;2022-12-18T03:58:53;101253.28;;;11.34;54.87
23281;BME280;11809;56.390;-3.266;2022-12-18T04:01:25;101249.81;;;11.33;54.93
23281;BME280;11809;56.390;-3.266;2022-12-18T04:03:56;101249.84;;;11.32;54.84
23281;BME280;11809;56.390;-3.266;2022-12-18T04:06:25;101240.19;;;11.32;55.01
23281;BME280;11809;56.390;-3.266;2022-12-18T04:08:53;101236.69;;;11.32;54.84
23281;BME280;11809;56.390;-3.266;2022-12-18T04:11:19;101234.13;;;11.30;54.90
23281;BME280;11809;56.390;-3.266;2022-12-18T04:13:46;101228.91;;;11.29;54.93
23281;BME280;11809;56.390;-3.266;2022-12-18T04:16:13;101228.97;;;11.27;54.98
23281;BME280;11809;56.390;-3.266;2022-12-18T04:18:40;101221.97;;;11.26;55.12
23281;BME280;11809;56.390;-3.266;2022-12-18T04:21:07;101223.72;;;11.27;54.94
23281;BME280;11809;56.390;-3.266;2022-12-18T04:23:34;101218.44;;;11.27;55.28
23281;BME280;11809;56.390;-3.266;2022-12-18T04:26:01;101202.69;;;11.26;55.28
23281;BME280;11809;56.390;-3.266;2022-12-18T04:28:28;101214.06;;;11.26;55.10
23281;BME280;11809;56.390;-3.266;2022-12-18T04:30:55;101211.44;;;11.26;54.97
23281;BME280;11809;56.390;-3.266;2022-12-18T04:33:22;101218.47;;;11.26;55.16
23281;BME280;11809;56.390;-3.266;2022-12-18T04:35:50;101207.13;;;11.25;55.37
23281;BME280;11809;56.390;-3.266;2022-12-18T04:38:17;101206.28;;;11.23;55.21
23281;BME280;11809;56.390;-3.266;2022-12-18T04:40:44;101201.97;;;11.22;55.32
23281;BME280;11809;56.390;-3.266;2022-12-18T04:43:10;101201.03;;;11.23;55.22
23281;BME280;11809;56.390;-3.266;2022-12-18T04:45:38;101192.31;;;11.23;55.23
23281;BME280;11809;56.390;-3.266;2022-12-18T04:48:06;101195.75;;;11.23;55.18
23281;BME280;11809;56.390;-3.266;2022-12-18T04:50:33;101194.06;;;11.22;55.21
23281;BME280;11809;56.390;-3.266;2022-12-18T04:53:00;101190.56;;;11.22;55.16
23281;BME280;11809;56.390;-3.266;2022-12-18T04:55:27;101187.06;;;11.21;55.23
23281;BME280;11809;56.390;-3.266;2022-12-18T04:57:54;101180.09;;;11.20;55.21
23281;BME280;11809;56.390;-3.266;2022-12-18T05:00:22;101183.53;;;11.22;55.49
23281;BME280;11809;56.390;-3.266;2022-12-18T05:02:49;101173.06;;;11.21;55.43
23281;BME280;11809;56.390;-3.266;2022-12-18T05:05:16;101161.69;;;11.20;55.34
23281;BME280;11809;56.390;-3.266;2022-12-18T05:07:43;101165.22;;;11.19;55.54
23281;BME280;11809;56.390;-3.266;2022-12-18T05:10:11;101167.84;;;11.19;55.40
23281;BME280;11809;56.390;-3.266;2022-12-18T05:12:38;101161.72;;;11.19;55.36
23281;BME280;11809;56.390;-3.266;2022-12-18T05:15:32;101176.66;;;11.18;55.28
23281;BME280;11809;56.390;-3.266;2022-12-18T05:17:59;101171.50;;;11.15;55.38
23281;BME280;11809;56.390;-3.266;2022-12-18T05:20:27;101173.16;;;11.18;55.38
23281;BME280;11809;56.390;-3.266;2022-12-18T05:22:55;101162.69;;;11.16;55.26
23281;BME280;11809;56.390;-3.266;2022-12-18T05:25:22;101168.84;;;11.15;55.28
23281;BME280;11809;56.390;-3.266;2022-12-18T05:27:49;101168.84;;;11.15;55.25
23281;BME280;11809;56.390;-3.266;2022-12-18T05:30:16;101167.97;;;11.16;55.31
23281;BME280;11809;56.390;-3.266;2022-12-18T05:32:43;101170.66;;;11.15;55.55
23281;BME280;11809;56.390;-3.266;2022-12-18T05:35:11;101157.53;;;11.13;55.15
23281;BME280;11809;56.390;-3.266;2022-12-18T05:37:38;101168.06;;;11.13;55.41
23281;BME280;11809;56.390;-3.266;2022-12-18T05:40:09;101160.16;;;11.13;55.59
23281;BME280;11809;56.390;-3.266;2022-12-18T05:42:36;101159.31;;;11.13;55.42
23281;BME280;11809;56.390;-3.266;2022-12-18T05:45:04;101161.09;;;11.12;55.49
23281;BME280;11809;56.390;-3.266;2022-12-18T05:47:31;101165.44;;;11.13;55.37
23281;BME280;11809;56.390;-3.266;2022-12-18T05:49:58;101168.06;;;11.13;55.60
23281;BME280;11809;56.390;-3.266;2022-12-18T05:52:25;101157.53;;;11.13;55.50
23281;BME280;11809;56.390;-3.266;2022-12-18T05:54:52;101152.28;;;11.13;55.60
23281;BME280;11809;56.390;-3.266;2022-12-18T05:57:19;101148.84;;;11.11;55.72
23281;BME280;11809;56.390;-3.266;2022-12-18T05:59:46;101158.50;;;11.11;55.66
23281;BME280;11809;56.390;-3.266;2022-12-18T06:02:12;101155.94;;;11.09;55.52
23281;BME280;11809;56.390;-3.266;2022-12-18T06:04:40;101160.25;;;11.10;55.55
23281;BME280;11809;56.390;-3.266;2022-12-18T06:07:07;101151.53;;;11.10;55.78
23281;BME280;11809;56.390;-3.266;2022-12-18T06:09:33;101156.84;;;11.08;55.71
23281;BME280;11809;56.390;-3.266;2022-12-18T06:12:00;101155.09;;;11.07;55.51
23281;BME280;11809;56.390;-3.266;2022-12-18T06:14:27;101151.56;;;11.08;55.65
23281;BME280;11809;56.390;-3.266;2022-12-18T06:16:54;101150.78;;;11.06;55.62
23281;BME280;11809;56.390;-3.266;2022-12-18T06:19:21;101140.25;;;11.06;55.75
23281;BME280;11809;56.390;-3.266;2022-12-18T06:21:48;101139.38;;;11.06;55.83
23281;BME280;11809;56.390;-3.266;2022-12-18T06:24:15;101141.16;;;11.05;55.64
23281;BME280;11809;56.390;-3.266;2022-12-18T06:26:42;101151.66;;;11.07;55.78
23281;BME280;11809;56.390;-3.266;2022-12-18T06:29:09;101156.03;;;11.06;55.73
23281;BME280;11809;56.390;-3.266;2022-12-18T06:31:36;101156.03;;;11.06;55.84
23281;BME280;11809;56.390;-3.266;2022-12-18T06:34:04;101140.25;;;11.06;55.77
23281;BME280;11809;56.390;-3.266;2022-12-18T06:36:31;101133.25;;;11.05;55.83
23281;BME280;11809;56.390;-3.266;2022-12-18T06:38:58;101145.50;;;11.06;55.87
23281;BME280;11809;56.390;-3.266;2022-12-18T06:41:25;101137.66;;;11.05;55.78
23281;BME280;11809;56.390;-3.266;2022-12-18T06:43:52;101134.22;;;11.03;55.50
23281;BME280;11809;56.390;-3.266;2022-12-18T06:46:25;101147.38;;;11.03;55.61
23281;BME280;11809;56.390;-3.266;2022-12-18T06:48:52;101150.88;;;11.03;55.99
23281;BME280;11809;56.390;-3.266;2022-12-18T06:51:20;101135.09;;;11.03;55.72
23281;BME280;11809;56.390;-3.266;2022-12-18T06:53:48;101133.38;;;11.02;55.84
23281;BME280;11809;56.390;-3.266;2022-12-18T06:56:15;101124.56;;;11.03;55.48
23281;BME280;11809;56.390;-3.266;2022-12-18T06:58:42;101114.06;;;11.03;55.71
23281;BME280;11809;56.390;-3.266;2022-12-18T07:01:10;101092.22;;;11.01;55.69
23281;BME280;11809;56.390;-3.266;2022-12-18T07:03:39;101090.47;;;11.02;55.61
23281;BME280;11809;56.390;-3.266;2022-12-18T07:06:18;101087.75;;;11.03;55.78
23281;BME280;11809;56.390;-3.266;2022-12-18T07:08:46;101086.03;;;11.02;55.63
23281;BME280;11809;56.390;-3.266;2022-12-18T07:11:14;101094.47;;;11.12;55.57
23281;BME280;11809;56.390;-3.266;2022-12-18T07:13:41;101079.09;;;11.24;55.65
23281;BME280;11809;56.390;-3.266;2022-12-18T07:16:14;101073.53;;;11.33;55.66
23281;BME280;11809;56.390;-3.266;2022-12-18T07:18:49;101069.69;;;11.42;55.79
23281;BME280;11809;56.390;-3.266;2022-12-18T07:21:19;101086.22;;;11.45;55.75
23281;BME280;11809;56.390;-3.266;2022-12-18T07:23:46;101109.97;;;11.44;55.48
23281;BME280;11809;56.390;-3.266;2022-12-18T07:26:17;101112.44;;;11.48;55.66
23281;BME280;11809;56.390;-3.266;2022-12-18T07:28:44;101113.13;;;11.53;55.41
23281;BME280;11809;56.390;-3.266;2022-12-18T07:31:14;101101.50;;;11.59;55.78
23281;BME280;11809;56.390;-3.266;2022-12-18T07:33:43;101091.59;;;11.66;55.69
23281;BME280;11809;56.390;-3.266;2022-12-18T07:36:11;101088.00;;;11.68;55.38
23281;BME280;11809;56.390;-3.266;2022-12-18T07:38:38;101081.66;;;11.74;55.50
23281;BME280;11809;56.390;-3.266;2022-12-18T07:41:09;101076.28;;;11.77;55.30
23281;BME280;11809;56.390;-3.266;2022-12-18T07:43:37;101073.63;;;11.78;55.47
23281;BME280;11809;56.390;-3.266;2022-12-18T07:46:05;101072.56;;;11.82;55.45
23281;BME280;11809;56.390;-3.266;2022-12-18T07:48:32;101062.78;;;11.86;55.32
23281;BME280;11809;56.390;-3.266;2022-12-18T07:51:00;101055.66;;;11.88;55.42
23281;BME280;11809;56.390;-3.266;2022-12-18T07:53:28;101052.91;;;11.91;55.06
23281;BME280;11809;56.390;-3.266;2022-12-18T07:55:59;101058.97;;;11.93;55.16
23281;BME280;11809;56.390;-3.266;2022-12-18T07:58:47;101049.22;;;11.95;55.09
23281;BME280;11809;56.390;-3.266;2022-12-18T08:01:14;101051.75;;;11.98;55.53
23281;BME280;11809;56.390;-3.266;2022-12-18T08:03:42;101062.25;;;11.99;55.20
23281;BME280;11809;56.390;-3.266;2022-12-18T08:06:10;101063.91;;;12.02;55.40
23281;BME280;11809;56.390;-3.266;2022-12-18T08:08:36;101061.16;;;12.05;55.08
23281;BME280;11809;56.390;-3.266;2022-12-18T08:11:04;101062.84;;;12.06;55.37
23281;BME280;11809;56.390;-3.266;2022-12-18T08:13:31;101047.84;;;12.08;55.00
23281;BME280;11809;56.390;-3.266;2022-12-18T08:16:03;101052.97;;;12.11;55.49
23281;BME280;11809;56.390;-3.266;2022-12-18T08:18:32;101056.44;;;12.13;55.04
23281;BME280;11809;56.390;-3.266;2022-12-18T08:21:09;101054.50;;;12.16;55.17
23281;BME280;11809;56.390;-3.266;2022-12-18T08:23:37;101048.25;;;12.19;55.36
23281;BME280;11809;56.390;-3.266;2022-12-18T08:26:09;101042.88;;;12.22;55.42
23281;BME280;11809;56.390;-3.266;2022-12-18T08:28:36;101037.59;;;12.22;55.29
23281;BME280;11809;56.390;-3.266;2022-12-18T08:31:03;101037.47;;;12.25;55.32
23281;BME280;11809;56.390;-3.266;2022-12-18T08:33:31;101025.09;;;12.27;55.38
23281;BME280;11809;56.390;-3.266;2022-12-18T08:35:58;101016.19;;;12.30;55.27
23281;BME280;11809;56.390;-3.266;2022-12-18T08:38:25;101022.28;;;12.32;55.29
23281;BME280;11809;56.390;-3.266;2022-12-18T08:41:03;101011.00;;;12.28;54.63
23281;BME280;11809;56.390;-3.266;2022-12-18T08:43:31;101011.75;;;12.10;54.93
23281;BME280;11809;56.390;-3.266;2022-12-18T08:46:20;101004.53;;;12.15;55.22
23281;BME280;11809;56.390;-3.266;2022-12-18T08:48:50;100994.56;;;12.22;55.11
23281;BME280;11809;56.390;-3.266;2022-12-18T08:51:17;101000.59;;;12.25;55.32
23281;BME280;11809;56.390;-3.266;2022-12-18T08:53:44;100995.19;;;12.28;55.75
23281;BME280;11809;56.390;-3.266;2022-12-18T08:56:12;100989.81;;;12.31;55.99
23281;BME280;11809;56.390;-3.266;2022-12-18T08:58:39;100983.47;;;12.35;56.09
23281;BME280;11809;56.390;-3.266;2022-12-18T09:01:08;100971.91;;;12.39;56.08
23281;BME280;11809;56.390;-3.266;2022-12-18T09:03:36;100963.00;;;12.42;56.27
23281;BME280;11809;56.390;-3.266;2022-12-18T09:06:04;100972.47;;;12.46;55.98
23281;BME280;11809;56.390;-3.266;2022-12-18T09:08:34;100971.63;;;12.45;56.39
23281;BME280;11809;56.390;-3.266;2022-12-18T09:11:02;100978.47;;;12.49;56.63
23281;BME280;11809;56.390;-3.266;2022-12-18T09:13:29;100970.50;;;12.51;56.04
23281;BME280;11809;56.390;-3.266;2022-12-18T09:15:56;100962.53;;;12.52;56.31
23281;BME280;11809;56.390;-3.266;2022-12-18T09:18:23;100966.81;;;12.55;56.01
23281;BME280;11809;56.390;-3.266;2022-12-18T09:20:50;100958.00;;;12.56;55.98
23281;BME280;11809;56.390;-3.266;2022-12-18T09:23:20;100949.09;;;12.58;56.36
23281;BME280;11809;56.390;-3.266;2022-12-18T09:25:48;100949.03;;;12.60;56.15
23281;BME280;11809;56.390;-3.266;2022-12-18T09:28:17;100943.63;;;12.63;56.05
23281;BME280;11809;56.390;-3.266;2022-12-18T09:30:47;100947.91;;;12.65;55.92
23281;BME280;11809;56.390;-3.266;2022-12-18T09:33:15;100930.22;;;12.67;55.32
23281;BME280;11809;56.390;-3.266;2022-12-18T09:35:44;100917.97;;;12.66;55.54
23281;BME280;11809;56.390;-3.266;2022-12-18T09:38:16;100921.41;;;12.68;55.54
23281;BME280;11809;56.390;-3.266;2022-12-18T09:40:47;100905.97;;;12.59;55.01
23281;BME280;11809;56.390;-3.266;2022-12-18T09:43:20;100901.81;;;12.54;54.77
23281;BME280;11809;56.390;-3.266;2022-12-18T09:45:52;100901.38;;;12.44;54.77
23281;BME280;11809;56.390;-3.266;2022-12-18T09:48:27;100890.19;;;12.39;54.84
23281;BME280;11809;56.390;-3.266;2022-12-18T09:50:58;100883.31;;;12.35;54.76
23281;BME280;11809;56.390;-3.266;2022-12-18T09:53:31;100879.84;;;12.35;55.10
23281;BME280;11809;56.390;-3.266;2022-12-18T09:56:00;100873.91;;;12.30;54.77
23281;BME280;11809;56.390;-3.266;2022-12-18T10:01:01;100876.78;;;12.44;54.66
23281;BME280;11809;56.390;-3.266;2022-12-18T10:03:28;100869.69;;;12.46;54.65
23281;BME280;11809;56.390;-3.266;2022-12-18T10:06:15;100864.22;;;12.50;54.63
23281;BME280;11809;56.390;-3.266;2022-12-18T10:12:06;100847.31;;;12.54;54.92
23281;BME280;11809;56.390;-3.266;2022-12-18T10:19:53;100838.03;;;12.66;54.34
23281;BME280;11809;56.390;-3.266;2022-12-18T10:27:37;100821.06;;;12.71;54.49
23281;BME280;11809;56.390;-3.266;2022-12-18T10:30:23;100813.06;;;12.73;54.82
23281;BME280;11809;56.390;-3.266;2022-12-18T10:32:52;100806.78;;;12.75;54.66
23281;BME280;11809;56.390;-3.266;2022-12-18T10:35:26;100806.66;;;12.78;55.00
23281;BME280;11809;56.390;-3.266;2022-12-18T10:40:33;100800.03;;;12.89;54.93
23281;BME280;11809;56.390;-3.266;2022-12-18T10:43:14;100794.59;;;12.92;54.70
23281;BME280;11809;56.390;-3.266;2022-12-18T10:45:43;100791.03;;;12.93;54.79
23281;BME280;11809;56.390;-3.266;2022-12-18T10:48:24;100774.91;;;12.99;54.84
23281;BME280;11809;56.390;-3.266;2022-12-18T10:50:52;100777.34;;;13.03;55.24
23281;BME280;11809;56.390;-3.266;2022-12-18T10:53:40;100770.16;;;13.07;55.22
23281;BME280;11809;56.390;-3.266;2022-12-18T10:56:09;100753.31;;;13.09;55.26
23281;BME280;11809;56.390;-3.266;2022-12-18T10:58:38;100748.69;;;13.14;55.09
23281;BME280;11809;56.390;-3.266;2022-12-18T11:06:28;100729.31;;;13.32;54.85
23281;BME280;11809;56.390;-3.266;2022-12-18T11:09:26;100722.94;;;13.36;54.80
23281;BME280;11809;56.390;-3.266;2022-12-18T11:11:59;100729.06;;;13.37;54.63
23281;BME280;11809;56.390;-3.266;2022-12-18T11:14:30;100720.13;;;13.40;54.53
23281;BME280;11809;56.390;-3.266;2022-12-18T11:16:59;100720.00;;;13.43;54.52
23281;BME280;11809;56.390;-3.266;2022-12-18T11:19:58;100708.25;;;13.48;54.13
23281;BME280;11809;56.390;-3.266;2022-12-18T11:22:29;100703.69;;;13.52;54.69
23281;BME280;11809;56.390;-3.266;2022-12-18T11:25:05;100695.44;;;13.58;54.52
23281;BME280;11809;56.390;-3.266;2022-12-18T11:28:41;100684.72;;;13.61;53.97
23281;BME280;11809;56.390;-3.266;2022-12-18T11:31:26;100697.50;;;13.68;53.81
23281;BME280;11809;56.390;-3.266;2022-12-18T11:34:09;100687.81;;;13.69;53.50
23281;BME280;11809;56.390;-3.266;2022-12-18T11:36:55;100691.94;;;13.74;53.77
23281;BME280;11809;56.390;-3.266;2022-12-18T11:39:37;100684.75;;;13.76;53.61
23281;BME280;11809;56.390;-3.266;2022-12-18T11:42:20;100676.84;;;13.76;53.34
23281;BME280;11809;56.390;-3.266;2022-12-18T11:45:00;100677.69;;;13.77;53.22
23281;BME280;11809;56.390;-3.266;2022-12-18T11:47:57;100678.31;;;13.82;53.37
23281;BME280;11809;56.390;-3.266;2022-12-18T11:50:28;100672.09;;;13.83;53.01
23281;BME280;11809;56.390;-3.266;2022-12-18T11:52:56;100671.34;;;13.81;52.77
23281;BME280;11809;56.390;-3.266;2022-12-18T11:55:39;100658.13;;;13.81;52.91
23281;BME280;11809;56.390;-3.266;2022-12-18T12:01:08;100654.31;;;13.86;52.80
23281;BME280;11809;56.390;-3.266;2022-12-18T12:18:28;100611.19;;;13.53;52.63
23281;BME280;11809;56.390;-3.266;2022-12-18T12:21:06;100618.06;;;13.40;52.72
23281;BME280;11809;56.390;-3.266;2022-12-18T12:26:14;100616.81;;;13.63;52.82
23281;BME280;11809;56.390;-3.266;2022-12-18T12:40:24;100571.34;;;13.73;52.99
23281;BME280;11809;56.390;-3.266;2022-12-18T12:43:22;100563.22;;;13.78;53.03
23281;BME280;11809;56.390;-3.266;2022-12-18T12:46:03;100548.03;;;13.81;52.86
23281;BME280;11809;56.390;-3.266;2022-12-18T12:48:49;100536.44;;;13.84;53.03
23281;BME280;11809;56.390;-3.266;2022-12-18T12:51:26;100536.03;;;13.91;52.96
23281;BME280;11809;56.390;-3.266;2022-12-18T12:53:57;100542.78;;;13.97;52.42
23281;BME280;11809;56.390;-3.266;2022-12-18T12:56:31;100546.25;;;13.97;52.35
23281;BME280;11809;56.390;-3.266;2022-12-18T12:59:13;100546.94;;;14.01;52.67
23281;BME280;11809;56.390;-3.266;2022-12-18T13:05:13;100524.66;;;14.05;52.55
23281;BME280;11809;56.390;-3.266;2022-12-18T13:07:16;100514.38;;;14.01;52.83
23281;BME280;11809;56.390;-3.266;2022-12-18T13:10:25;100514.09;;;14.05;52.95
23281;BME280;11809;56.390;-3.266;2022-12-18T13:13:05;100504.97;;;14.11;52.98
23281;BME280;11809;56.390;-3.266;2022-12-18T13:18:18;100506.69;;;14.12;52.86
23281;BME280;11809;56.390;-3.266;2022-12-18T13:20:49;100501.50;;;14.10;52.32
23281;BME280;11809;56.390;-3.266;2022-12-18T13:34:22;100482.38;;;14.21;52.78
23281;BME280;11809;56.390;-3.266;2022-12-18T13:36:54;100454.06;;;14.23;52.93
23281;BME280;11809;56.390;-3.266;2022-12-18T13:39:31;100450.28;;;14.27;53.67
23281;BME280;11809;56.390;-3.266;2022-12-18T13:44:39;100458.31;;;14.25;54.28
23281;BME280;11809;56.390;-3.266;2022-12-18T13:47:27;100449.47;;;14.26;53.52
23281;BME280;11809;56.390;-3.266;2022-12-18T13:49:58;100442.19;;;14.30;53.96
23281;BME280;11809;56.390;-3.266;2022-12-18T13:52:28;100438.53;;;14.32;54.01
23281;BME280;11809;56.390;-3.266;2022-12-18T13:55:03;100432.16;;;14.36;53.52
23281;BME280;11809;56.390;-3.266;2022-12-18T13:57:36;100431.88;;;14.41;53.57
23281;BME280;11809;56.390;-3.266;2022-12-18T14:02:50;100426.97;;;14.49;53.72
23281;BME280;11809;56.390;-3.266;2022-12-18T14:08:08;100414.91;;;14.59;53.76
23281;BME280;11809;56.390;-3.266;2022-12-18T14:10:41;100404.31;;;14.59;53.33
23281;BME280;11809;56.390;-3.266;2022-12-18T14:13:30;100394.78;;;14.56;53.42
23281;BME280;11809;56.390;-3.266;2022-12-18T14:16:04;100396.41;;;14.59;53.71
23281;BME280;11809;56.390;-3.266;2022-12-18T14:18:45;100395.34;;;14.62;53.87
23281;BME280;11809;56.390;-3.266;2022-12-18T14:21:25;100390.00;;;14.63;53.21
23281;BME280;11809;56.390;-3.266;2022-12-18T14:24:04;100372.38;;;14.48;51.05
23281;BME280;11809;56.390;-3.266;2022-12-18T14:26:32;100365.31;;;14.48;51.18
23281;BME280;11809;56.390;-3.266;2022-12-18T14:29:27;100350.31;;;14.49;51.75
23281;BME280;11809;56.390;-3.266;2022-12-18T14:32:12;100349.09;;;14.54;52.21
23281;BME280;11809;56.390;-3.266;2022-12-18T14:34:46;100349.25;;;14.51;51.41
23281;BME280;11809;56.390;-3.266;2022-12-18T14:37:17;100342.84;;;14.41;51.72
23281;BME280;11809;56.390;-3.266;2022-12-18T14:39:55;100332.34;;;14.40;51.51
23281;BME280;11809;56.390;-3.266;2022-12-18T14:42:27;100328.19;;;14.36;51.38
23281;BME280;11809;56.390;-3.266;2022-12-18T14:48:09;100307.09;;;14.20;51.75
23281;BME280;11809;56.390;-3.266;2022-12-18T14:50:42;100306.59;;;14.14;52.08
23281;BME280;11809;56.390;-3.266;2022-12-18T14:53:20;100309.19;;;14.15;51.52
23281;BME280;11809;56.390;-3.266;2022-12-18T14:55:50;100308.13;;;14.18;51.82